Time;durP1;ratioP1;P1;durP2;ratioP2;P2;SDS_P1;SDS_P2;PMS_P1;PMS_P2;Temp;Humidity;BMP_temperature;BMP_pressure;BME280_temperature;BME280_humidity;BME280_pressure;Samples;Min_cycle;Max_cycle;Signal;HPM_P1;HPM_P2
2020/12/04 00:00:34;;;;;;;3.60;3.30;;;20.00;45.50;;;;;;5040572;28;20724;-67
2020/12/04 00:03:00;;;;;;;2.50;2.40;;;20.00;45.50;;;;;;5049584;28;20478;-69
2020/12/04 00:05:26;;;;;;;2.90;2.70;;;20.00;45.60;;;;;;5013491;28;20546;-69
2020/12/04 00:07:53;;;;;;;3.17;2.97;;;19.90;45.60;;;;;;5026428;28;20927;-69
2020/12/04 00:10:19;;;;;;;3.57;3.27;;;19.90;45.70;;;;;;5027742;28;20486;-70
2020/12/04 00:12:45;;;;;;;3.17;2.87;;;19.90;45.70;;;;;;5030242;28;20474;-69
2020/12/04 00:15:11;;;;;;;2.37;2.27;;;19.90;45.80;;;;;;5026363;28;20513;-69
2020/12/04 00:17:37;;;;;;;3.00;2.80;;;19.80;45.80;;;;;;5055545;28;20983;-69
2020/12/04 00:20:04;;;;;;;2.67;2.53;;;19.80;46.00;;;;;;5042489;28;20551;-68
2020/12/04 00:22:30;;;;;;;3.10;2.90;;;19.70;45.90;;;;;;5048898;28;20486;-70
2020/12/04 00:24:57;;;;;;;2.30;2.20;;;19.70;46.00;;;;;;5033753;28;20510;-71
2020/12/04 00:27:23;;;;;;;3.00;2.67;;;19.70;46.10;;;;;;5016564;28;20494;-71
2020/12/04 00:29:49;;;;;;;3.03;2.93;;;19.70;46.10;;;;;;5025808;28;21431;-70
2020/12/04 00:35:37;;;;;;;2.60;2.50;;;19.70;46.10;;;;;;5070079;28;20488;-68
2020/12/04 00:38:03;;;;;;;3.40;3.10;;;19.70;46.10;;;;;;5059393;28;20493;-69
2020/12/04 00:40:30;;;;;;;2.40;2.30;;;19.70;46.00;;;;;;5066491;28;20492;-69
2020/12/04 00:42:57;;;;;;;3.53;3.23;;;19.80;46.00;;;;;;5083329;28;20468;-70
2020/12/04 00:45:23;;;;;;;2.63;2.43;;;19.80;46.00;;;;;;5050007;28;20514;-69
2020/12/04 00:47:49;;;;;;;2.93;2.73;;;19.80;45.90;;;;;;5072113;28;20473;-70
2020/12/04 00:50:15;;;;;;;2.60;2.50;;;19.80;45.90;;;;;;5074085;28;20465;-70
2020/12/04 00:52:41;;;;;;;2.47;2.27;;;19.80;45.80;;;;;;5063054;28;20522;-70
2020/12/04 00:55:07;;;;;;;3.00;2.70;;;19.80;45.90;;;;;;5035838;28;20486;-70
2020/12/04 00:57:34;;;;;;;2.73;2.53;;;19.80;45.80;;;;;;5046420;28;20507;-70
2020/12/04 01:00:00;;;;;;;2.43;2.23;;;19.80;46.60;;;;;;5036566;28;20477;-69
2020/12/04 01:02:26;;;;;;;2.60;2.40;;;19.80;45.80;;;;;;5038807;28;20483;-70
2020/12/04 01:04:52;;;;;;;2.40;2.30;;;19.80;45.90;;;;;;5054251;28;20480;-71
2020/12/04 01:07:18;;;;;;;2.57;2.37;;;19.80;45.90;;;;;;5070163;28;20502;-69
2020/12/04 01:09:44;;;;;;;2.93;2.83;;;19.70;45.90;;;;;;5040420;28;20971;-70
2020/12/04 01:12:10;;;;;;;3.03;2.80;;;19.70;45.90;;;;;;5038651;28;20494;-68
2020/12/04 01:14:37;;;;;;;2.80;2.60;;;19.70;45.90;;;;;;5057373;28;20476;-68
2020/12/04 01:17:03;;;;;;;2.73;2.53;;;19.70;46.00;;;;;;5064045;28;20546;-67
2020/12/04 01:19:29;;;;;;;2.60;2.47;;;19.70;46.00;;;;;;5076034;28;21606;-67
2020/12/04 01:21:55;;;;;;;2.77;2.60;;;19.70;46.00;;;;;;5030852;28;21140;-68
2020/12/04 01:24:21;;;;;;;2.40;2.30;;;19.70;46.00;;;;;;5042625;28;20935;-69
2020/12/04 01:26:47;;;;;;;2.57;2.37;;;19.70;46.10;;;;;;5004187;28;20530;-68
2020/12/04 01:29:13;;;;;;;2.80;2.70;;;19.70;46.20;;;;;;5013260;28;20539;-69
2020/12/04 01:31:44;;;;;;;3.13;2.83;;;19.70;46.10;;;;;;5042453;28;20498;-69
2020/12/04 01:34:10;;;;;;;2.40;2.30;;;19.70;46.00;;;;;;5045293;28;21611;-68
2020/12/04 01:36:36;;;;;;;2.80;2.60;;;19.70;46.00;;;;;;5056220;28;20474;-68
2020/12/04 01:39:02;;;;;;;2.70;2.50;;;19.70;45.90;;;;;;5003168;28;21207;-69
2020/12/04 01:41:32;;;;;;;2.57;2.40;;;19.70;45.80;;;;;;5014948;28;20475;-69
2020/12/04 01:43:58;;;;;;;2.77;2.53;;;19.80;45.90;;;;;;5012288;28;21084;-69
2020/12/04 01:46:24;;;;;;;2.90;2.67;;;19.80;45.80;;;;;;5054493;28;20485;-69
2020/12/04 01:48:51;;;;;;;2.93;2.63;;;19.90;45.80;;;;;;5050158;28;20486;-68
2020/12/04 01:51:17;;;;;;;2.63;2.43;;;19.90;45.70;;;;;;5047338;28;20479;-69
2020/12/04 01:53:44;;;;;;;3.77;2.50;;;19.90;45.70;;;;;;5039058;28;21082;-69
2020/12/04 01:56:11;;;;;;;2.27;2.17;;;19.90;45.60;;;;;;5050396;28;20836;-70
2020/12/04 01:58:37;;;;;;;4.13;3.07;;;19.80;45.60;;;;;;5047135;28;20547;-70
2020/12/04 02:01:03;;;;;;;2.40;2.30;;;19.80;45.60;;;;;;5055812;28;20481;-72
2020/12/04 02:03:29;;;;;;;2.20;2.10;;;19.80;45.70;;;;;;5049870;28;20544;-70
2020/12/04 02:05:58;;;;;;;1.60;1.50;;;19.80;45.80;;;;;;5054065;28;20542;-69
2020/12/04 02:08:29;;;;;;;2.73;2.53;;;19.80;45.80;;;;;;5051475;28;20481;-69
2020/12/04 02:11:00;;;;;;;2.57;2.43;;;19.70;45.70;;;;;;5094470;28;20477;-70
2020/12/04 02:13:26;;;;;;;2.70;2.50;;;19.80;45.70;;;;;;5053916;28;20971;-69
2020/12/04 02:15:52;;;;;;;2.50;2.30;;;19.80;45.70;;;;;;5062411;28;20585;-69
2020/12/04 02:18:18;;;;;;;2.60;2.50;;;19.80;45.70;;;;;;5052746;28;20482;-69
2020/12/04 02:20:53;;;;;;;2.47;2.37;;;19.90;45.70;;;;;;5038663;28;20546;-70
2020/12/04 02:23:19;;;;;;;2.43;2.33;;;19.90;45.60;;;;;;5050216;28;20515;-68
2020/12/04 02:25:45;;;;;;;3.93;2.70;;;19.90;45.50;;;;;;5040604;28;21001;-69
2020/12/04 02:28:11;;;;;;;3.03;2.83;;;19.90;45.40;;;;;;5040515;28;20547;-69
2020/12/04 02:30:37;;;;;;;3.13;2.90;;;19.90;45.50;;;;;;5030393;28;20482;-69
2020/12/04 02:33:03;;;;;;;2.43;2.33;;;19.90;45.50;;;;;;5030392;28;20478;-68
2020/12/04 02:35:29;;;;;;;2.83;2.60;;;19.80;45.40;;;;;;5018433;28;20537;-68
2020/12/04 02:37:56;;;;;;;3.57;3.27;;;19.80;45.50;;;;;;5016598;28;20474;-70
2020/12/04 02:40:22;;;;;;;2.50;2.30;;;19.80;45.50;;;;;;5045058;28;20520;-68
2020/12/04 02:42:48;;;;;;;2.60;2.40;;;19.80;45.60;;;;;;5038178;28;20478;-68
2020/12/04 02:45:14;;;;;;;2.93;2.77;;;19.80;45.60;;;;;;5047041;28;20539;-68
2020/12/04 02:47:41;;;;;;;2.73;2.63;;;19.80;45.60;;;;;;5068807;28;20477;-68
2020/12/04 02:50:07;;;;;;;2.80;2.60;;;19.90;45.70;;;;;;5057161;28;20535;-68
2020/12/04 02:52:33;;;;;;;2.63;2.50;;;19.90;45.70;;;;;;5053973;28;20489;-69
2020/12/04 02:55:00;;;;;;;2.50;2.30;;;19.80;45.40;;;;;;5062403;28;21024;-68
2020/12/04 02:57:26;;;;;;;2.70;2.50;;;19.80;45.40;;;;;;5057807;28;20532;-68
2020/12/04 02:59:52;;;;;;;2.53;2.40;;;19.80;45.40;;;;;;5070159;28;20543;-67
2020/12/04 03:02:18;;;;;;;2.67;2.57;;;19.80;45.50;;;;;;5072850;28;20480;-67
2020/12/04 03:04:44;;;;;;;2.90;2.20;;;19.80;45.50;;;;;;5041585;28;20524;-68
2020/12/04 03:07:10;;;;;;;2.47;2.33;;;19.80;45.50;;;;;;5057537;28;20493;-69
2020/12/04 03:09:36;;;;;;;2.47;2.27;;;19.70;45.60;;;;;;5062846;28;20479;-69
2020/12/04 03:12:03;;;;;;;2.80;2.60;;;19.70;45.60;;;;;;5036104;28;20544;-68
2020/12/04 03:14:29;;;;;;;2.80;2.60;;;19.70;45.70;;;;;;5039734;28;20478;-68
2020/12/04 03:16:55;;;;;;;2.37;2.27;;;19.70;45.80;;;;;;5048797;28;20547;-69
2020/12/04 03:19:21;;;;;;;2.33;2.13;;;19.70;45.90;;;;;;5046831;28;20489;-69
2020/12/04 03:21:47;;;;;;;4.40;2.77;;;19.60;45.80;;;;;;5050201;28;20531;-69
2020/12/04 03:24:14;;;;;;;2.93;2.20;;;19.70;45.80;;;;;;5050714;28;20539;-69
2020/12/04 03:26:40;;;;;;;2.00;1.90;;;19.70;45.90;;;;;;5052050;28;20494;-68
2020/12/04 03:29:07;;;;;;;2.50;2.40;;;19.70;45.90;;;;;;5036139;28;21072;-68
2020/12/04 03:31:33;;;;;;;2.93;2.70;;;19.60;45.80;;;;;;5049825;28;20545;-69
2020/12/04 03:33:59;;;;;;;2.80;2.60;;;19.60;45.80;;;;;;5047546;28;20490;-70
2020/12/04 03:36:25;;;;;;;2.80;2.60;;;19.60;45.80;;;;;;5052727;28;20544;-67
2020/12/04 03:38:51;;;;;;;2.67;2.57;;;19.70;45.80;;;;;;5054401;28;21030;-68
2020/12/04 03:41:17;;;;;;;2.70;2.50;;;19.70;45.70;;;;;;5052054;28;20527;-68
2020/12/04 03:43:43;;;;;;;2.90;2.70;;;19.70;45.60;;;;;;5038739;28;20548;-68
2020/12/04 03:46:10;;;;;;;3.23;2.80;;;19.70;45.70;;;;;;5047431;28;20479;-68
2020/12/04 03:48:37;;;;;;;2.70;2.50;;;19.70;45.60;;;;;;5048260;28;21050;-70
2020/12/04 03:51:03;;;;;;;3.47;3.10;;;19.70;45.60;;;;;;5037971;28;20487;-69
2020/12/04 03:53:29;;;;;;;3.20;3.00;;;19.70;45.60;;;;;;5050199;28;21103;-68
2020/12/04 03:55:55;;;;;;;2.70;2.40;;;19.70;45.60;;;;;;5039106;28;20631;-70
2020/12/04 03:58:21;;;;;;;2.23;2.13;;;19.70;45.70;;;;;;5049665;28;21594;-69
2020/12/04 04:00:47;;;;;;;3.10;2.90;;;19.60;45.60;;;;;;5049122;28;20482;-68
2020/12/04 04:03:14;;;;;;;2.83;2.60;;;19.70;45.80;;;;;;5047593;28;20527;-69
2020/12/04 04:05:40;;;;;;;2.93;2.70;;;19.70;45.90;;;;;;5030549;28;20869;-70
2020/12/04 04:08:06;;;;;;;3.00;2.70;;;19.70;45.90;;;;;;5059124;28;20555;-69
2020/12/04 04:10:32;;;;;;;2.73;2.53;;;19.70;45.90;;;;;;5050977;28;20496;-69
2020/12/04 04:12:58;;;;;;;2.40;2.27;;;19.70;45.90;;;;;;5071305;28;21666;-70
2020/12/04 04:15:24;;;;;;;2.40;2.30;;;19.70;45.80;;;;;;5073771;28;20894;-69
2020/12/04 04:17:50;;;;;;;2.77;2.57;;;19.80;45.70;;;;;;5044217;28;20482;-70
2020/12/04 04:20:17;;;;;;;2.40;2.30;;;19.80;45.70;;;;;;5049637;28;20592;-69
2020/12/04 04:22:43;;;;;;;2.47;2.37;;;19.80;45.80;;;;;;5038781;28;20481;-69
2020/12/04 04:25:12;;;;;;;3.10;2.90;;;19.80;45.70;;;;;;5055988;28;20490;-69
2020/12/04 04:27:38;;;;;;;2.40;2.30;;;19.80;45.60;;;;;;5037365;28;21496;-69
2020/12/04 04:30:04;;;;;;;2.40;2.30;;;19.90;45.80;;;;;;5054292;28;20867;-68
2020/12/04 04:32:30;;;;;;;4.40;2.70;;;19.90;46.50;;;;;;5047681;28;20547;-69
2020/12/04 04:34:57;;;;;;;2.70;2.50;;;19.90;45.50;;;;;;5005510;28;20482;-69
2020/12/04 04:37:23;;;;;;;3.20;2.90;;;19.90;45.30;;;;;;5044483;28;20490;-71
2020/12/04 04:39:49;;;;;;;2.40;2.20;;;20.00;45.30;;;;;;5044939;28;21118;-68
2020/12/04 04:42:17;;;;;;;2.30;2.20;;;20.10;45.20;;;;;;5048914;28;20485;-68
2020/12/04 04:44:44;;;;;;;2.43;2.33;;;20.10;45.20;;;;;;5045662;28;20501;-69
2020/12/04 04:47:12;;;;;;;3.13;2.83;;;20.10;45.30;;;;;;5049518;28;20543;-68
2020/12/04 04:49:41;;;;;;;2.70;2.50;;;20.10;45.20;;;;;;5043030;28;20490;-69
2020/12/04 04:52:07;;;;;;;2.10;2.00;;;20.10;45.10;;;;;;5038967;28;21154;-69
2020/12/04 04:54:35;;;;;;;2.63;2.53;;;20.10;44.90;;;;;;5044699;28;20517;-68
2020/12/04 04:57:02;;;;;;;2.70;2.50;;;20.20;44.90;;;;;;5041002;28;20485;-69
2020/12/04 04:59:28;;;;;;;2.33;2.23;;;20.10;44.90;;;;;;5057264;28;20485;-68
2020/12/04 05:01:54;;;;;;;3.00;2.27;;;20.10;45.00;;;;;;5046620;28;20482;-68
2020/12/04 05:04:20;;;;;;;2.40;2.30;;;20.10;45.10;;;;;;5051675;28;20494;-70
2020/12/04 05:06:46;;;;;;;2.57;2.43;;;20.00;45.10;;;;;;5043784;28;20478;-68
2020/12/04 05:09:15;;;;;;;2.53;2.33;;;20.00;45.30;;;;;;5036774;28;20483;-70
2020/12/04 05:11:53;;;;;;;2.73;2.53;;;20.00;45.50;;;;;;5030885;28;20481;-69
2020/12/04 05:14:22;;;;;;;2.53;2.33;;;19.90;45.60;;;;;;5021560;28;20550;-68
2020/12/04 05:16:50;;;;;;;2.73;2.53;;;19.90;45.70;;;;;;5048457;28;21195;-69
2020/12/04 05:19:32;;;;;;;2.70;2.50;;;19.90;45.60;;;;;;5038998;28;20531;-70
2020/12/04 05:22:08;;;;;;;2.47;2.27;;;19.90;45.70;;;;;;5018642;28;20506;-68
2020/12/04 05:24:34;;;;;;;2.30;2.20;;;20.00;45.60;;;;;;5057291;28;20487;-67
2020/12/04 05:27:01;;;;;;;2.90;2.60;;;19.90;45.50;;;;;;5070878;28;20955;-69
2020/12/04 05:29:36;;;;;;;2.60;2.43;;;20.00;45.40;;;;;;5057616;28;20558;-69
2020/12/04 05:32:13;;;;;;;2.50;2.30;;;20.00;45.40;;;;;;5017580;28;20477;-68
2020/12/04 05:34:39;;;;;;;2.70;2.60;;;20.10;45.40;;;;;;5060898;28;20534;-69
2020/12/04 05:37:05;;;;;;;2.13;1.90;;;20.10;45.30;;;;;;5080411;28;21674;-69
2020/12/04 05:39:40;;;;;;;3.00;2.80;;;20.10;45.20;;;;;;5076553;28;20470;-68
2020/12/04 05:42:07;;;;;;;3.00;2.80;;;20.10;45.20;;;;;;5058713;28;20477;-71
2020/12/04 05:44:33;;;;;;;2.70;2.50;;;20.10;45.20;;;;;;5076279;28;20485;-68
2020/12/04 05:46:59;;;;;;;2.80;2.60;;;20.10;45.30;;;;;;5057850;28;20502;-69
2020/12/04 05:49:25;;;;;;;2.73;2.53;;;20.00;45.30;;;;;;5073842;28;20485;-69
2020/12/04 05:51:52;;;;;;;2.17;2.07;;;20.00;45.40;;;;;;5063578;28;20473;-69
2020/12/04 05:54:19;;;;;;;2.47;2.27;;;20.00;45.30;;;;;;5060234;28;20568;-69
2020/12/04 05:56:46;;;;;;;2.57;2.37;;;20.10;45.50;;;;;;5078827;28;20477;-69
2020/12/04 05:59:13;;;;;;;2.90;2.70;;;20.00;45.40;;;;;;5066715;28;20526;-69
2020/12/04 06:01:44;;;;;;;2.60;2.50;;;20.00;45.40;;;;;;5054530;28;21030;-70
2020/12/04 06:04:10;;;;;;;2.47;2.37;;;20.00;45.50;;;;;;5020685;28;20571;-69
2020/12/04 06:06:37;;;;;;;2.77;2.43;;;20.00;45.60;;;;;;5064272;28;20480;-68
2020/12/04 06:09:05;;;;;;;2.17;2.07;;;20.00;45.60;;;;;;5038300;28;20546;-69
2020/12/04 06:11:32;;;;;;;2.70;2.50;;;20.00;45.60;;;;;;5043072;28;20484;-69
2020/12/04 06:13:59;;;;;;;1.97;1.87;;;20.00;45.60;;;;;;5053168;28;21687;-69
2020/12/04 06:16:26;;;;;;;2.70;2.60;;;20.00;45.60;;;;;;5056369;28;20589;-69
2020/12/04 06:18:52;;;;;;;2.77;2.57;;;20.00;46.30;;;;;;5045989;28;20557;-69
2020/12/04 06:21:43;;;;;;;2.67;2.57;;;20.00;45.50;;;;;;5047729;28;20489;-69
2020/12/04 06:24:09;;;;;;;2.70;2.30;;;20.10;45.60;;;;;;5072029;28;20980;-68
2020/12/04 06:26:47;;;;;;;2.77;2.57;;;20.10;45.60;;;;;;5049520;28;20565;-69
2020/12/04 06:29:13;;;;;;;2.50;2.33;;;20.10;45.50;;;;;;5070681;28;20973;-70
2020/12/04 06:31:40;;;;;;;2.77;2.57;;;20.10;45.40;;;;;;5065182;28;20481;-69
2020/12/04 06:34:16;;;;;;;2.20;2.00;;;20.10;45.30;;;;;;5057496;28;20546;-69
2020/12/04 06:36:42;;;;;;;2.70;2.60;;;20.10;45.30;;;;;;5075485;28;20987;-70
2020/12/04 06:39:08;;;;;;;2.63;2.40;;;20.20;45.30;;;;;;5074159;28;20476;-71
2020/12/04 06:41:34;;;;;;;2.17;1.97;;;20.20;45.30;;;;;;5023438;28;20476;-68
2020/12/04 06:44:02;;;;;;;2.40;2.20;;;20.20;45.30;;;;;;5076324;28;20541;-70
2020/12/04 06:46:40;;;;;;;2.50;2.30;;;20.10;45.30;;;;;;5062332;28;20483;-68
2020/12/04 06:49:22;;;;;;;2.37;2.23;;;20.10;45.30;;;;;;5064909;28;20475;-67
2020/12/04 06:51:55;;;;;;;2.90;2.70;;;20.10;45.50;;;;;;5072582;28;20542;-68
2020/12/04 06:54:21;;;;;;;2.70;2.50;;;20.10;45.50;;;;;;5059495;28;20976;-68
2020/12/04 06:56:49;;;;;;;2.53;2.43;;;20.10;45.60;;;;;;5063581;28;20489;-69
2020/12/04 06:59:23;;;;;;;2.00;1.90;;;20.10;45.50;;;;;;5042595;28;20482;-68
2020/12/04 07:01:51;;;;;;;2.30;2.20;;;20.20;45.40;;;;;;5040565;28;21184;-69
2020/12/04 07:04:17;;;;;;;1.90;1.80;;;20.30;45.10;;;;;;5071249;28;20476;-68
2020/12/04 07:06:43;;;;;;;2.63;2.53;;;20.30;45.10;;;;;;5063824;28;20487;-69
2020/12/04 07:09:09;;;;;;;2.60;2.50;;;20.30;44.90;;;;;;5067875;28;20896;-68
2020/12/04 07:11:35;;;;;;;2.43;2.30;;;20.40;44.90;;;;;;5071381;28;20489;-66
2020/12/04 07:14:01;;;;;;;2.63;2.53;;;20.30;45.00;;;;;;5071569;27;20476;-69
2020/12/04 07:16:27;;;;;;;2.43;2.33;;;20.30;45.10;;;;;;5081068;28;20523;-67
2020/12/04 07:18:54;;;;;;;2.30;2.20;;;20.30;45.20;;;;;;5065037;28;20503;-69
2020/12/04 07:21:20;;;;;;;2.50;2.40;;;20.20;45.20;;;;;;5064194;28;20521;-68
2020/12/04 07:23:47;;;;;;;2.53;2.40;;;20.20;45.30;;;;;;5075705;28;21258;-68
2020/12/04 07:26:15;;;;;;;2.87;2.67;;;20.20;45.30;;;;;;5064820;28;20488;-69
2020/12/04 07:28:41;;;;;;;3.10;2.90;;;20.20;45.40;;;;;;5069126;28;20491;-68
2020/12/04 07:31:14;;;;;;;2.30;2.10;;;20.10;45.30;;;;;;5065099;28;20485;-69
2020/12/04 07:33:52;;;;;;;2.60;2.33;;;20.10;45.50;;;;;;5052661;28;20489;-69
2020/12/04 07:36:18;;;;;;;3.00;2.90;;;20.10;45.50;;;;;;5071125;28;20492;-68
2020/12/04 07:38:54;;;;;;;3.67;2.77;;;20.10;45.60;;;;;;5055261;28;20960;-69
2020/12/04 07:41:31;;;;;;;3.40;3.10;;;20.10;45.60;;;;;;5028639;28;20551;-69
2020/12/04 07:44:01;;;;;;;2.60;2.33;;;20.10;45.60;;;;;;5017763;28;21624;-69
2020/12/04 07:46:27;;;;;;;3.00;2.60;;;20.10;45.60;;;;;;5037793;28;20539;-68
2020/12/04 07:49:07;;;;;;;3.70;3.43;;;20.00;45.60;;;;;;5027968;28;20489;-68
2020/12/04 07:51:34;;;;;;;3.13;2.33;;;20.00;45.70;;;;;;5034115;28;20979;-69
2020/12/04 07:54:02;;;;;;;2.93;2.73;;;20.00;45.60;;;;;;5034550;28;20482;-68
2020/12/04 07:56:28;;;;;;;2.43;2.30;;;20.00;45.40;;;;;;5040535;28;20572;-69
2020/12/04 07:59:01;;;;;;;2.10;2.00;;;20.10;45.40;;;;;;5035958;28;20555;-69
2020/12/04 08:01:28;;;;;;;2.57;2.27;;;20.10;45.30;;;;;;5041683;28;20642;-71
2020/12/04 08:03:54;;;;;;;2.60;2.20;;;20.10;45.30;;;;;;5056815;28;20470;-70
2020/12/04 08:06:27;;;;;;;2.77;2.50;;;20.10;45.20;;;;;;5071743;28;20489;-69
2020/12/04 08:09:13;;;;;;;2.77;2.53;;;20.10;45.20;;;;;;5047646;28;20485;-69
2020/12/04 08:11:53;;;;;;;3.10;2.80;;;20.20;45.30;;;;;;5061580;28;20470;-68
2020/12/04 08:14:23;;;;;;;2.50;2.30;;;20.10;45.30;;;;;;5069072;28;20480;-69
2020/12/04 08:16:52;;;;;;;2.07;1.97;;;20.10;45.40;;;;;;5057880;28;20984;-69
2020/12/04 08:19:19;;;;;;;2.10;2.00;;;20.10;45.50;;;;;;5055692;28;20481;-69
2020/12/04 08:22:01;;;;;;;2.50;2.13;;;20.10;45.60;;;;;;5057390;28;20473;-70
2020/12/04 08:24:29;;;;;;;2.60;2.40;;;20.00;45.50;;;;;;5062661;28;20481;-71
2020/12/04 08:27:17;;;;;;;3.13;2.70;;;20.00;45.60;;;;;;5051184;28;20480;-70
2020/12/04 08:29:46;;;;;;;2.77;2.57;;;20.00;45.60;;;;;;5028994;28;20477;-70
2020/12/04 08:32:14;;;;;;;3.37;3.07;;;20.10;45.70;;;;;;5048502;28;20501;-68
2020/12/04 08:34:41;;;;;;;2.67;2.53;;;20.10;45.60;;;;;;5026352;28;21070;-68
2020/12/04 08:37:09;;;;;;;2.87;2.57;;;20.10;45.50;;;;;;5065032;28;20474;-68
2020/12/04 08:39:40;;;;;;;3.20;3.00;;;20.10;45.50;;;;;;5042439;28;20490;-68
2020/12/04 08:42:23;;;;;;;2.67;2.47;;;20.10;45.30;;;;;;5051873;28;20483;-70
2020/12/04 08:45:04;;;;;;;2.60;2.40;;;20.10;45.40;;;;;;5047697;28;20490;-69
2020/12/04 08:47:33;;;;;;;2.40;2.30;;;20.20;45.50;;;;;;5041789;28;20555;-69
2020/12/04 08:50:05;;;;;;;3.00;2.80;;;20.20;45.50;;;;;;5039663;28;20481;-68
2020/12/04 08:52:34;;;;;;;3.20;2.70;;;20.10;45.40;;;;;;5054237;28;20549;-68
2020/12/04 08:55:08;;;;;;;3.63;2.90;;;20.10;46.20;;;;;;5042815;28;20482;-69
2020/12/04 08:57:34;;;;;;;3.80;3.50;;;20.10;45.60;;;;;;5045908;28;20474;-69
2020/12/04 09:00:00;;;;;;;3.20;3.00;;;20.10;45.50;;;;;;5042238;28;20537;-69
2020/12/04 09:02:26;;;;;;;2.20;2.10;;;20.10;45.70;;;;;;5035723;28;20523;-69
2020/12/04 09:04:53;;;;;;;2.87;2.67;;;20.00;45.70;;;;;;5029701;28;20927;-69
2020/12/04 09:07:19;;;;;;;3.03;2.83;;;20.00;45.70;;;;;;5051670;28;20481;-69
2020/12/04 09:09:45;;;;;;;4.13;2.80;;;20.00;45.70;;;;;;5056310;28;20479;-70
2020/12/04 09:12:12;;;;;;;3.47;2.50;;;20.00;45.60;;;;;;5041728;28;20831;-71
2020/12/04 09:14:38;;;;;;;2.90;2.70;;;20.10;45.60;;;;;;5058158;28;20868;-70
2020/12/04 09:17:04;;;;;;;3.23;2.60;;;20.10;45.50;;;;;;5036744;28;20498;-70
2020/12/04 09:19:30;;;;;;;3.23;2.93;;;20.10;45.60;;;;;;5043047;28;20529;-70
2020/12/04 09:21:56;;;;;;;2.37;2.27;;;20.10;45.60;;;;;;5058104;28;20535;-69
2020/12/04 09:24:22;;;;;;;3.53;3.00;;;20.10;45.40;;;;;;5045170;28;20494;-68
2020/12/04 09:26:49;;;;;;;2.90;2.70;;;20.10;45.40;;;;;;5046028;28;21600;-69
2020/12/04 09:29:15;;;;;;;2.83;2.63;;;20.20;45.40;;;;;;5005433;28;21780;-68
2020/12/04 09:31:41;;;;;;;2.10;2.00;;;20.20;45.80;;;;;;5010687;28;20531;-71
2020/12/04 09:34:08;;;;;;;2.80;2.60;;;20.20;45.40;;;;;;5046755;28;20494;-69
2020/12/04 09:36:34;;;;;;;2.70;2.50;;;20.20;45.50;;;;;;5040667;28;20507;-69
2020/12/04 09:39:00;;;;;;;3.03;2.73;;;20.20;45.50;;;;;;5034015;28;20914;-69
2020/12/04 09:41:26;;;;;;;2.57;2.47;;;20.10;45.50;;;;;;5055556;28;20486;-67
2020/12/04 09:43:52;;;;;;;3.87;2.50;;;20.10;45.60;;;;;;5026988;28;20485;-67
2020/12/04 09:46:19;;;;;;;2.73;2.53;;;20.10;45.60;;;;;;5045856;28;20523;-68
2020/12/04 09:48:45;;;;;;;3.27;2.97;;;20.10;45.60;;;;;;5049142;28;20544;-70
2020/12/04 09:51:11;;;;;;;2.97;2.77;;;20.10;45.70;;;;;;5041870;28;20506;-69
2020/12/04 09:53:37;;;;;;;2.80;2.70;;;20.10;45.80;;;;;;5000994;28;20555;-69
2020/12/04 09:56:03;;;;;;;3.23;2.83;;;20.10;45.80;;;;;;5057031;28;20491;-68
2020/12/04 09:58:29;;;;;;;2.97;2.70;;;20.10;45.70;;;;;;5041428;28;20932;-69
2020/12/04 10:00:55;;;;;;;3.17;2.30;;;20.10;45.60;;;;;;5036749;28;20537;-70
2020/12/04 10:03:22;;;;;;;2.73;2.57;;;20.10;45.70;;;;;;5045669;28;20548;-68
2020/12/04 10:05:48;;;;;;;2.53;2.43;;;20.10;45.70;;;;;;5044871;28;20547;-68
2020/12/04 10:08:14;;;;;;;3.10;2.83;;;20.10;45.70;;;;;;5034582;28;20915;-69
2020/12/04 10:10:40;;;;;;;1.87;1.77;;;20.10;45.70;;;;;;5042606;28;20513;-69
2020/12/04 10:13:06;;;;;;;2.83;2.53;;;20.10;45.70;;;;;;5030545;28;20512;-68
2020/12/04 10:15:32;;;;;;;2.77;2.63;;;20.10;45.80;;;;;;5047480;28;20583;-68
2020/12/04 10:17:58;;;;;;;2.87;2.67;;;20.10;45.70;;;;;;5049835;28;20506;-71
2020/12/04 10:20:25;;;;;;;2.23;2.13;;;20.10;45.70;;;;;;5048882;28;20986;-69
2020/12/04 10:22:51;;;;;;;5.50;2.10;;;20.10;45.70;;;;;;5044330;28;20558;-69
2020/12/04 10:25:17;;;;;;;3.60;2.80;;;20.00;45.80;;;;;;5049787;28;20520;-69
2020/12/04 10:27:43;;;;;;;2.80;2.70;;;20.00;45.80;;;;;;5052191;28;20528;-68
2020/12/04 10:30:09;;;;;;;2.80;2.60;;;19.90;45.90;;;;;;5026301;28;20548;-68
2020/12/04 10:32:35;;;;;;;3.13;2.83;;;19.90;45.90;;;;;;5022926;28;21046;-68
2020/12/04 10:35:01;;;;;;;2.93;2.70;;;19.90;46.00;;;;;;5044987;28;20485;-69
2020/12/04 10:37:28;;;;;;;2.80;2.70;;;19.90;46.00;;;;;;5052460;28;20572;-69
2020/12/04 10:39:54;;;;;;;2.43;2.33;;;19.90;46.00;;;;;;5002860;28;20486;-68
2020/12/04 10:42:20;;;;;;;2.07;1.97;;;19.90;46.00;;;;;;5031598;28;20544;-70
2020/12/04 10:44:46;;;;;;;3.27;3.03;;;19.90;46.10;;;;;;5042079;28;20896;-68
2020/12/04 10:47:12;;;;;;;3.03;2.83;;;19.90;46.10;;;;;;5031929;28;20489;-69
2020/12/04 10:49:38;;;;;;;1.80;1.70;;;19.90;46.10;;;;;;5046676;28;20594;-70
2020/12/04 10:52:04;;;;;;;3.13;3.03;;;19.90;46.10;;;;;;5041102;28;20549;-67
2020/12/04 10:54:31;;;;;;;3.50;3.20;;;20.00;46.10;;;;;;5047594;28;20490;-68
2020/12/04 10:56:57;;;;;;;2.53;2.40;;;20.00;46.00;;;;;;5034003;28;20606;-69
2020/12/04 10:59:24;;;;;;;4.23;3.37;;;20.00;46.30;;;;;;5030325;28;20491;-68
2020/12/04 11:01:55;;;;;;;2.60;2.33;;;20.00;45.90;;;;;;5044552;28;20494;-67
2020/12/04 11:07:05;;;;;;;2.63;2.40;;;20.00;46.00;;;;;;5028629;28;20497;-67
2020/12/04 11:09:32;;;;;;;2.03;1.93;;;20.10;46.00;;;;;;5040197;28;20979;-69
2020/12/04 11:11:58;;;;;;;2.27;2.17;;;20.00;45.80;;;;;;5074056;28;20476;-69
2020/12/04 11:14:24;;;;;;;2.53;2.40;;;20.00;46.00;;;;;;5059662;28;20473;-68
2020/12/04 11:16:50;;;;;;;2.37;2.27;;;20.00;46.00;;;;;;5064587;28;21082;-68
2020/12/04 11:19:17;;;;;;;2.60;2.40;;;20.00;46.10;;;;;;5055869;28;20498;-69
2020/12/04 11:21:43;;;;;;;3.10;2.90;;;20.00;46.10;;;;;;5053344;28;20489;-70
2020/12/04 11:24:09;;;;;;;3.07;2.80;;;20.00;46.10;;;;;;5051289;28;20481;-68
2020/12/04 11:26:35;;;;;;;2.20;2.10;;;20.00;46.00;;;;;;5051656;28;20531;-68
2020/12/04 11:29:02;;;;;;;3.10;2.37;;;20.00;46.00;;;;;;5057112;28;20561;-69
2020/12/04 11:31:28;;;;;;;2.67;2.33;;;20.00;45.90;;;;;;5064829;28;20490;-70
2020/12/04 11:33:54;;;;;;;3.03;2.67;;;20.10;46.00;;;;;;5069659;28;20520;-68
2020/12/04 11:36:20;;;;;;;2.83;2.63;;;20.10;45.90;;;;;;5045120;28;20493;-67
2020/12/04 11:38:46;;;;;;;2.77;2.57;;;20.10;45.80;;;;;;5064193;28;21330;-69
2020/12/04 11:41:12;;;;;;;4.57;3.20;;;20.10;45.70;;;;;;5075874;28;20489;-69
2020/12/04 11:43:39;;;;;;;2.23;2.03;;;20.10;45.70;;;;;;5044559;28;20489;-68
2020/12/04 11:46:05;;;;;;;2.37;2.17;;;20.10;45.70;;;;;;5039185;28;20555;-69
2020/12/04 11:48:31;;;;;;;2.50;2.30;;;20.10;45.70;;;;;;5059669;28;20494;-68
2020/12/04 11:50:57;;;;;;;2.60;2.40;;;20.10;45.80;;;;;;5049312;28;20489;-68
2020/12/04 11:53:23;;;;;;;2.87;2.37;;;20.10;45.70;;;;;;5055388;28;20484;-69
2020/12/04 11:55:49;;;;;;;2.57;2.37;;;20.10;45.80;;;;;;5071757;28;21064;-68
2020/12/04 11:58:16;;;;;;;2.80;2.53;;;20.10;45.90;;;;;;5029925;28;20568;-68
2020/12/04 12:00:43;;;;;;;2.20;2.10;;;20.10;46.00;;;;;;5032436;28;20486;-68
2020/12/04 12:03:09;;;;;;;2.37;2.17;;;20.10;46.00;;;;;;5044787;28;20490;-68
2020/12/04 12:05:37;;;;;;;2.90;2.60;;;20.10;46.00;;;;;;5042708;28;20481;-67
2020/12/04 12:08:03;;;;;;;2.50;2.40;;;20.10;46.10;;;;;;5018683;28;20495;-69
2020/12/04 12:10:29;;;;;;;2.40;2.30;;;20.00;46.20;;;;;;5044186;28;21313;-70
2020/12/04 12:12:55;;;;;;;2.93;2.60;;;20.00;46.20;;;;;;5030080;28;20535;-67
2020/12/04 12:15:21;;;;;;;2.80;2.60;;;20.00;46.20;;;;;;5041560;28;20493;-70
2020/12/04 12:17:48;;;;;;;2.60;2.50;;;19.90;46.20;;;;;;5034512;28;20992;-70
2020/12/04 12:20:14;;;;;;;2.83;2.63;;;19.90;46.30;;;;;;5047242;28;20535;-70
2020/12/04 12:22:40;;;;;;;2.83;2.63;;;19.90;46.30;;;;;;5042984;28;20478;-68
2020/12/04 12:25:06;;;;;;;4.07;2.83;;;19.90;46.50;;;;;;5033641;28;20474;-69
2020/12/04 12:27:32;;;;;;;2.97;2.77;;;19.90;46.50;;;;;;5018942;28;21755;-70
2020/12/04 12:29:58;;;;;;;2.90;2.70;;;19.90;46.40;;;;;;4997702;28;20515;-69
2020/12/04 12:32:24;;;;;;;2.37;2.17;;;20.00;47.10;;;;;;5047781;28;21608;-68
2020/12/04 12:35:02;;;;;;;2.63;2.40;;;20.00;46.30;;;;;;5049214;28;20504;-68
2020/12/04 12:37:28;;;;;;;3.00;2.77;;;20.00;46.30;;;;;;5040984;28;21029;-68
2020/12/04 12:39:55;;;;;;;3.67;3.37;;;20.00;46.20;;;;;;5026786;28;20488;-70
2020/12/04 12:42:21;;;;;;;2.23;2.13;;;20.00;46.20;;;;;;5036938;28;20497;-69
2020/12/04 12:44:47;;;;;;;2.80;2.70;;;20.00;46.20;;;;;;5025618;28;21644;-69
2020/12/04 12:47:13;;;;;;;2.57;2.40;;;20.00;46.20;;;;;;5043491;28;20497;-69
2020/12/04 12:49:40;;;;;;;3.13;2.93;;;20.00;46.30;;;;;;5054155;28;20490;-69
2020/12/04 12:52:08;;;;;;;2.20;2.10;;;20.00;46.40;;;;;;5045349;28;20481;-69
2020/12/04 12:54:34;;;;;;;2.10;2.00;;;20.00;46.50;;;;;;5014871;28;20477;-69